createdAt,value
2018-02-25T00:00:14.604Z,971.90
2018-02-25T00:01:14.596Z,971.86
2018-02-25T00:02:14.615Z,971.90
2018-02-25T00:03:14.563Z,971.86
2018-02-25T00:04:14.549Z,971.85
2018-02-25T00:05:14.533Z,971.87
2018-02-25T00:06:14.519Z,971.89
2018-02-25T00:07:14.500Z,971.84
2018-02-25T00:08:14.491Z,971.90
2018-02-25T00:09:14.473Z,971.90
2018-02-25T00:10:14.459Z,971.94
2018-02-25T00:11:14.443Z,971.90
2018-02-25T00:12:14.427Z,971.91
2018-02-25T00:13:14.414Z,971.93
2018-02-25T00:14:14.396Z,971.93
2018-02-25T00:15:14.391Z,971.99
2018-02-25T00:16:14.383Z,971.90
2018-02-25T00:17:14.353Z,971.89
2018-02-25T00:18:14.335Z,971.88
2018-02-25T00:19:14.322Z,971.98
2018-02-25T00:20:14.311Z,972.00
2018-02-25T00:21:14.312Z,972.03
2018-02-25T00:22:14.276Z,972.00
2018-02-25T00:23:14.264Z,971.97
2018-02-25T00:24:14.257Z,972.01
2018-02-25T00:25:14.234Z,972.01
2018-02-25T00:26:14.227Z,971.98
2018-02-25T00:27:14.205Z,971.99
2018-02-25T00:28:14.188Z,971.98
2018-02-25T00:29:14.182Z,971.95
2018-02-25T00:30:14.163Z,971.99
2018-02-25T00:31:14.146Z,971.96
2018-02-25T00:32:14.134Z,971.96
2018-02-25T00:33:14.119Z,971.99
2018-02-25T00:34:14.099Z,971.95
2018-02-25T00:35:14.085Z,971.93
2018-02-25T00:36:14.068Z,972.00
2018-02-25T00:37:14.053Z,972.02
2018-02-25T00:38:14.040Z,972.04
2018-02-25T00:39:14.031Z,971.99
2018-02-25T00:40:14.013Z,972.00
2018-02-25T00:41:13.998Z,972.03
2018-02-25T00:42:13.981Z,972.03
2018-02-25T00:43:13.965Z,972.04
2018-02-25T00:44:13.959Z,972.01
2018-02-25T00:45:13.936Z,972.01
2018-02-25T00:46:13.921Z,971.99
2018-02-25T00:47:13.973Z,971.99
2018-02-25T00:48:13.890Z,972.01
2018-02-25T00:49:13.873Z,972.00
2018-02-25T00:50:13.860Z,971.99
2018-02-25T00:51:13.851Z,972.02
2018-02-25T00:52:13.837Z,972.00
2018-02-25T00:53:13.813Z,972.01
2018-02-25T00:54:13.799Z,972.03
2018-02-25T00:55:13.796Z,972.04
2018-02-25T00:56:13.769Z,972.03
2018-02-25T00:57:13.754Z,972.01
2018-02-25T00:58:27.060Z,972.05
2018-02-25T01:00:08.180Z,972.01
2018-02-25T01:01:08.106Z,972.06
2018-02-25T01:03:03.566Z,972.01
2018-02-25T01:04:03.416Z,972.06
2018-02-25T01:05:57.821Z,972.02
2018-02-25T01:06:57.853Z,971.96
2018-02-25T01:07:57.728Z,972.01
2018-02-25T01:08:57.674Z,971.98
2018-02-25T01:09:57.663Z,971.94
2018-02-25T01:10:57.660Z,971.92
2018-02-25T01:11:57.624Z,971.93
2018-02-25T01:12:57.616Z,971.97
2018-02-25T01:13:57.592Z,971.89
2018-02-25T01:14:57.616Z,971.89
2018-02-25T01:15:57.593Z,971.92
2018-02-25T01:16:57.552Z,971.89
2018-02-25T01:17:57.561Z,971.87
2018-02-25T01:18:57.518Z,971.84
2018-02-25T01:19:57.502Z,971.84
2018-02-25T01:20:57.486Z,971.81
2018-02-25T01:21:57.475Z,971.81
2018-02-25T01:22:57.465Z,971.84
2018-02-25T01:23:57.447Z,971.78
2018-02-25T01:24:57.478Z,971.77
2018-02-25T01:25:57.411Z,971.76
2018-02-25T01:26:57.398Z,971.71
2018-02-25T01:27:57.383Z,971.77
2018-02-25T01:28:57.370Z,971.73
2018-02-25T01:29:57.356Z,971.73
2018-02-25T01:30:57.340Z,971.71
2018-02-25T01:31:57.345Z,971.71
2018-02-25T01:32:57.302Z,971.68
2018-02-25T01:33:57.293Z,971.66
2018-02-25T01:34:57.274Z,971.64
2018-02-25T01:35:57.265Z,971.65
2018-02-25T01:36:57.257Z,971.65
2018-02-25T01:37:57.231Z,971.65
2018-02-25T01:38:57.213Z,971.58
2018-02-25T01:39:57.201Z,971.67
2018-02-25T01:40:57.187Z,971.60
2018-02-25T01:41:57.183Z,971.63
2018-02-25T01:42:57.157Z,971.63
2018-02-25T01:43:57.138Z,971.61
2018-02-25T01:44:57.122Z,971.60
2018-02-25T01:45:57.106Z,971.60
2018-02-25T01:46:57.093Z,971.62
2018-02-25T01:47:57.077Z,971.59
2018-02-25T01:48:57.067Z,971.58
2018-02-25T01:49:57.058Z,971.58
2018-02-25T01:50:57.031Z,971.55
2018-02-25T01:51:57.022Z,971.57
2018-02-25T01:52:57.009Z,971.54
2018-02-25T01:53:57.034Z,971.53
2018-02-25T01:54:56.973Z,971.56
2018-02-25T01:55:56.982Z,971.58
2018-02-25T01:56:56.962Z,971.57
2018-02-25T01:57:56.927Z,971.53
2018-02-25T01:58:56.911Z,971.53
2018-02-25T01:59:56.891Z,971.51
2018-02-25T02:00:56.877Z,971.50
2018-02-25T02:01:56.867Z,971.50
2018-02-25T02:02:56.849Z,971.45
2018-02-25T02:03:56.830Z,971.51
2018-02-25T02:04:56.816Z,971.54
2018-02-25T02:05:56.800Z,971.51
2018-02-25T02:06:56.793Z,971.53
2018-02-25T02:07:56.787Z,971.49
2018-02-25T02:08:56.751Z,971.54
2018-02-25T02:09:56.738Z,971.58
2018-02-25T02:10:56.723Z,971.54
2018-02-25T02:11:56.709Z,971.54
2018-02-25T02:12:56.695Z,971.56
2018-02-25T02:13:56.675Z,971.50
2018-02-25T02:14:56.665Z,971.53
2018-02-25T02:15:56.646Z,971.52
2018-02-25T02:16:56.629Z,971.51
2018-02-25T02:17:56.616Z,971.58
2018-02-25T02:18:56.600Z,971.52
2018-02-25T02:19:56.585Z,971.53
2018-02-25T02:20:56.571Z,971.52
2018-02-25T02:21:56.572Z,971.54
2018-02-25T02:22:56.536Z,971.56
2018-02-25T02:23:56.523Z,971.51
2018-02-25T02:24:56.512Z,971.57
2018-02-25T02:25:56.493Z,971.61
2018-02-25T02:26:56.478Z,971.61
2018-02-25T02:27:56.464Z,971.59
2018-02-25T02:28:56.449Z,971.65
2018-02-25T02:29:56.429Z,971.61
2018-02-25T02:30:56.413Z,971.59
2018-02-25T02:31:56.399Z,971.63
2018-02-25T02:32:56.385Z,971.61
2018-02-25T02:33:56.368Z,971.67
2018-02-25T02:34:56.351Z,971.67
2018-02-25T02:35:56.338Z,971.68
2018-02-25T02:36:56.325Z,971.68
2018-02-25T02:37:56.313Z,971.71
2018-02-25T02:38:56.288Z,971.67
2018-02-25T02:39:56.305Z,971.70
2018-02-25T02:40:56.260Z,971.67
2018-02-25T02:41:56.245Z,971.63
2018-02-25T02:42:56.230Z,971.68
2018-02-25T02:43:56.218Z,971.72
2018-02-25T02:44:56.202Z,971.71
2018-02-25T02:45:56.188Z,971.71
2018-02-25T02:46:56.166Z,971.70
2018-02-25T02:47:56.152Z,971.70
2018-02-25T02:48:56.150Z,971.69
2018-02-25T02:49:56.140Z,971.73
2018-02-25T02:50:56.103Z,971.73
2018-02-25T02:51:56.091Z,971.73
2018-02-25T02:52:56.074Z,971.74
2018-02-25T02:53:56.065Z,971.71
2018-02-25T02:54:56.044Z,971.71
2018-02-25T02:55:56.030Z,971.74
2018-02-25T02:56:56.014Z,971.76
2018-02-25T02:57:56.001Z,971.75
2018-02-25T02:58:55.986Z,971.77
2018-02-25T02:59:55.973Z,971.79
2018-02-25T03:00:55.952Z,971.80
2018-02-25T03:01:55.947Z,971.81
2018-02-25T03:02:55.924Z,971.81
2018-02-25T03:03:55.907Z,971.83
2018-02-25T03:04:55.888Z,971.79
2018-02-25T03:05:55.873Z,971.80
2018-02-25T03:06:55.858Z,971.81
2018-02-25T03:07:55.841Z,971.82
2018-02-25T03:08:55.832Z,971.85
2018-02-25T03:09:55.812Z,971.85
2018-02-25T03:10:55.808Z,971.84
2018-02-25T03:11:55.784Z,971.83
2018-02-25T03:12:55.784Z,971.81
2018-02-25T03:13:55.752Z,971.80
2018-02-25T03:14:55.736Z,971.77
2018-02-25T03:15:55.720Z,971.81
2018-02-25T03:16:55.708Z,971.85
2018-02-25T03:17:55.704Z,971.80
2018-02-25T03:18:55.673Z,971.77
2018-02-25T03:19:55.667Z,971.79
2018-02-25T03:20:55.641Z,971.77
2018-02-25T03:21:55.624Z,971.73
2018-02-25T03:22:55.613Z,971.79
2018-02-25T03:23:55.598Z,971.78
2018-02-25T03:24:55.581Z,971.73
2018-02-25T03:25:55.569Z,971.76
2018-02-25T03:26:55.577Z,971.77
2018-02-25T03:27:55.542Z,971.75
2018-02-25T03:28:55.522Z,971.80
2018-02-25T03:29:55.504Z,971.83
2018-02-25T03:30:55.489Z,971.77
2018-02-25T03:31:55.473Z,971.81
2018-02-25T03:32:55.481Z,971.74
2018-02-25T03:33:55.440Z,971.76
2018-02-25T03:34:55.446Z,971.76
2018-02-25T03:35:55.406Z,971.79
2018-02-25T03:36:55.398Z,971.82
2018-02-25T03:37:55.386Z,971.79
2018-02-25T03:38:55.371Z,971.79
2018-02-25T03:39:55.359Z,971.84
2018-02-25T03:40:55.335Z,971.85
2018-02-25T03:41:55.333Z,971.87
2018-02-25T03:42:55.292Z,971.85
2018-02-25T03:43:55.277Z,971.90
2018-02-25T03:44:55.264Z,971.87
2018-02-25T03:45:55.253Z,971.89
2018-02-25T03:46:55.239Z,971.92
2018-02-25T03:47:55.235Z,971.91
2018-02-25T03:48:55.205Z,971.93
2018-02-25T03:49:55.198Z,971.88
2018-02-25T03:50:55.166Z,971.92
2018-02-25T03:51:55.153Z,971.93
2018-02-25T03:52:55.168Z,971.92
2018-02-25T03:53:55.140Z,971.88
2018-02-25T03:54:55.106Z,971.90
2018-02-25T03:55:55.086Z,971.86
2018-02-25T03:56:55.073Z,971.87
2018-02-25T03:57:55.088Z,971.87
2018-02-25T03:58:55.041Z,971.83
2018-02-25T03:59:55.023Z,971.81
2018-02-25T04:00:55.006Z,971.85
2018-02-25T04:01:54.988Z,971.82
2018-02-25T04:02:54.995Z,971.85
2018-02-25T04:03:54.979Z,971.82
2018-02-25T04:04:54.944Z,971.82
2018-02-25T04:05:54.928Z,971.80
2018-02-25T04:06:54.912Z,971.74
2018-02-25T04:07:54.915Z,971.73
2018-02-25T04:08:54.878Z,971.72
2018-02-25T04:09:54.868Z,971.74
2018-02-25T04:10:54.846Z,971.79
2018-02-25T04:11:54.836Z,971.74
2018-02-25T04:12:54.843Z,971.79
2018-02-25T04:13:54.798Z,971.77
2018-02-25T04:14:54.789Z,971.75
2018-02-25T04:15:54.766Z,971.78
2018-02-25T04:16:54.751Z,971.76
2018-02-25T04:17:54.728Z,971.79
2018-02-25T04:18:54.714Z,971.80
2018-02-25T04:19:54.702Z,971.84
2018-02-25T04:20:54.679Z,971.77
2018-02-25T04:21:54.664Z,971.80
2018-02-25T04:22:54.650Z,971.81
2018-02-25T04:23:54.634Z,971.80
2018-02-25T04:24:54.615Z,971.79
2018-02-25T04:25:54.599Z,971.73
2018-02-25T04:26:54.581Z,971.77
2018-02-25T04:27:54.566Z,971.77
2018-02-25T04:28:54.548Z,971.75
2018-02-25T04:29:54.535Z,971.77
2018-02-25T04:30:54.517Z,971.78
2018-02-25T04:31:54.516Z,971.78
2018-02-25T04:32:54.501Z,971.79
2018-02-25T04:33:54.462Z,971.77
2018-02-25T04:34:54.455Z,971.81
2018-02-25T04:35:54.435Z,971.80
2018-02-25T04:36:54.418Z,971.75
2018-02-25T04:37:54.396Z,971.75
2018-02-25T04:38:54.381Z,971.77
2018-02-25T04:39:54.370Z,971.74
2018-02-25T04:40:54.351Z,971.75
2018-02-25T04:41:54.329Z,971.74
2018-02-25T04:42:54.316Z,971.75
2018-02-25T04:43:54.323Z,971.74
2018-02-25T04:44:54.280Z,971.78
2018-02-25T04:45:54.260Z,971.79
2018-02-25T04:46:54.246Z,971.74
2018-02-25T04:47:54.225Z,971.71
2018-02-25T04:48:54.214Z,971.70
2018-02-25T04:49:54.191Z,971.69
2018-02-25T04:50:54.176Z,971.72
2018-02-25T04:51:54.190Z,971.73
2018-02-25T04:52:54.152Z,971.70
2018-02-25T04:53:54.129Z,971.74
2018-02-25T04:54:54.111Z,971.73
2018-02-25T04:55:54.924Z,971.71
2018-02-25T04:56:54.087Z,971.71
2018-02-25T04:57:54.059Z,971.71
2018-02-25T04:58:54.040Z,971.74
2018-02-25T04:59:54.022Z,971.74
2018-02-25T05:00:54.014Z,971.71
2018-02-25T05:01:54.003Z,971.69
2018-02-25T05:02:53.974Z,971.69
2018-02-25T05:03:54.024Z,971.71
2018-02-25T05:04:53.935Z,971.69
2018-02-25T05:05:53.918Z,971.74
2018-02-25T05:06:53.908Z,971.72
2018-02-25T05:07:53.887Z,971.71
2018-02-25T05:08:53.890Z,971.73
2018-02-25T05:09:53.853Z,971.74
2018-02-25T05:10:53.832Z,971.73
2018-02-25T05:11:53.819Z,971.75
2018-02-25T05:12:53.799Z,971.76
2018-02-25T05:13:53.787Z,971.76
2018-02-25T05:14:53.772Z,971.74
2018-02-25T05:15:53.750Z,971.76
2018-02-25T05:16:53.731Z,971.78
2018-02-25T05:17:53.717Z,971.77
2018-02-25T05:18:53.702Z,971.76
2018-02-25T05:19:53.678Z,971.74
2018-02-25T05:20:53.662Z,971.79
2018-02-25T05:21:53.644Z,971.73
2018-02-25T05:22:53.627Z,971.76
2018-02-25T05:23:53.630Z,971.75
2018-02-25T05:24:53.602Z,971.74
2018-02-25T05:25:53.577Z,971.77
2018-02-25T05:26:53.560Z,971.75
2018-02-25T05:27:53.545Z,971.74
2018-02-25T05:28:53.521Z,971.79
2018-02-25T05:29:53.509Z,971.82
2018-02-25T05:30:53.488Z,971.81
2018-02-25T05:31:53.476Z,971.77
2018-02-25T05:32:53.468Z,971.78
2018-02-25T05:33:53.473Z,971.81
2018-02-25T05:34:53.424Z,971.78
2018-02-25T05:35:53.400Z,971.78
2018-02-25T05:36:53.385Z,971.73
2018-02-25T05:37:53.367Z,971.70
2018-02-25T05:38:53.354Z,971.71
2018-02-25T05:39:53.349Z,971.69
2018-02-25T05:40:53.315Z,971.73
2018-02-25T05:41:53.297Z,971.72
2018-02-25T05:42:53.281Z,971.73
2018-02-25T05:43:53.264Z,971.77
2018-02-25T05:44:53.244Z,971.76
2018-02-25T05:45:53.229Z,971.73
2018-02-25T05:46:53.214Z,971.75
2018-02-25T05:47:53.219Z,971.76
2018-02-25T05:48:53.229Z,971.81
2018-02-25T05:49:53.162Z,971.82
2018-02-25T05:50:53.150Z,971.80
2018-02-25T05:51:53.124Z,971.85
2018-02-25T05:52:53.110Z,971.83
2018-02-25T05:53:53.114Z,971.86
2018-02-25T05:54:53.091Z,971.84
2018-02-25T05:55:53.064Z,971.85
2018-02-25T05:56:53.081Z,971.88
2018-02-25T05:57:53.026Z,971.85
2018-02-25T05:58:52.999Z,971.91
2018-02-25T05:59:52.993Z,971.89
2018-02-25T06:00:52.970Z,971.86
2018-02-25T06:01:52.951Z,971.88
2018-02-25T06:02:52.944Z,971.86
2018-02-25T06:03:52.939Z,971.87
2018-02-25T06:04:53.034Z,971.89
2018-02-25T06:05:52.916Z,971.90
2018-02-25T06:06:52.865Z,971.91
2018-02-25T06:07:52.853Z,971.90
2018-02-25T06:08:52.824Z,971.89
2018-02-25T06:09:52.807Z,971.87
2018-02-25T06:10:52.791Z,971.96
2018-02-25T06:11:52.786Z,971.97
2018-02-25T06:12:52.759Z,972.00
2018-02-25T06:13:52.735Z,971.98
2018-02-25T06:14:52.722Z,971.98
2018-02-25T06:15:52.717Z,971.99
2018-02-25T06:16:52.681Z,972.02
2018-02-25T06:17:52.667Z,972.01
2018-02-25T06:18:52.718Z,971.99
2018-02-25T06:19:52.636Z,972.00
2018-02-25T06:20:52.611Z,972.04
2018-02-25T06:21:52.596Z,972.05
2018-02-25T06:22:52.577Z,972.09
2018-02-25T06:23:52.560Z,972.08
2018-02-25T06:24:52.543Z,972.07
2018-02-25T06:25:52.523Z,972.08
2018-02-25T06:26:52.526Z,972.10
2018-02-25T06:27:52.492Z,972.12
2018-02-25T06:28:52.504Z,972.11
2018-02-25T06:29:52.451Z,972.13
2018-02-25T06:30:52.471Z,972.15
2018-02-25T06:31:52.422Z,972.16
2018-02-25T06:32:52.400Z,972.15
2018-02-25T06:33:52.383Z,972.14
2018-02-25T06:34:52.363Z,972.16
2018-02-25T06:35:52.346Z,972.20
2018-02-25T06:36:52.375Z,972.22
2018-02-25T06:37:52.310Z,972.19
2018-02-25T06:38:52.356Z,972.23
2018-02-25T06:39:53.313Z,972.23
2018-02-25T06:40:52.257Z,972.23
2018-02-25T06:41:52.242Z,972.28
2018-02-25T06:42:52.223Z,972.30
2018-02-25T06:43:52.769Z,972.34
2018-02-25T06:44:52.198Z,972.42
2018-02-25T06:45:52.174Z,972.35
2018-02-25T06:46:52.195Z,972.39
2018-02-25T06:47:52.150Z,972.44
2018-02-25T06:48:52.125Z,972.48
2018-02-25T06:49:52.110Z,972.71
2018-02-25T06:50:52.099Z,972.85
2018-02-25T06:51:52.082Z,972.78
2018-02-25T06:52:52.067Z,972.73
2018-02-25T06:53:52.049Z,972.74
2018-02-25T06:54:52.042Z,972.75
2018-02-25T06:55:52.029Z,972.97
2018-02-25T06:56:52.008Z,973.55
2018-02-25T06:57:51.994Z,973.70
2018-02-25T06:58:51.982Z,973.24
2018-02-25T06:59:51.969Z,972.98
2018-02-25T07:00:51.957Z,972.84
2018-02-25T07:01:51.947Z,972.84
2018-02-25T07:02:51.940Z,972.81
2018-02-25T07:03:51.924Z,972.88
2018-02-25T07:04:51.907Z,972.76
2018-02-25T07:05:51.894Z,972.81
2018-02-25T07:06:51.889Z,972.82
2018-02-25T07:07:51.876Z,972.75
2018-02-25T07:08:51.912Z,972.80
2018-02-25T07:09:51.855Z,972.81
2018-02-25T07:10:51.844Z,972.85
2018-02-25T07:11:51.833Z,972.89
2018-02-25T07:12:51.820Z,972.92
2018-02-25T07:13:51.817Z,972.92
2018-02-25T07:14:51.811Z,972.86
2018-02-25T07:15:52.856Z,972.87
2018-02-25T07:16:51.963Z,972.84
2018-02-25T07:17:51.858Z,972.82
2018-02-25T07:18:51.801Z,972.89
2018-02-25T07:19:51.792Z,972.90
2018-02-25T07:20:51.788Z,972.92
2018-02-25T07:21:51.773Z,972.93
2018-02-25T07:22:51.747Z,972.91
2018-02-25T07:23:51.727Z,972.93
2018-02-25T07:24:51.717Z,973.00
2018-02-25T07:25:51.709Z,973.02
2018-02-25T07:26:51.741Z,973.03
2018-02-25T07:27:51.766Z,972.96
2018-02-25T07:28:51.700Z,972.95
2018-02-25T07:29:51.718Z,973.02
2018-02-25T07:30:51.726Z,973.11
2018-02-25T07:31:51.750Z,973.15
2018-02-25T07:32:51.692Z,973.14
2018-02-25T07:33:51.684Z,973.13
2018-02-25T07:34:51.654Z,973.11
2018-02-25T07:35:51.641Z,973.14
2018-02-25T07:36:51.666Z,973.21
2018-02-25T07:37:51.629Z,973.25
2018-02-25T07:38:51.622Z,973.24
2018-02-25T07:39:51.630Z,973.34
2018-02-25T07:40:51.614Z,973.36
2018-02-25T07:41:51.634Z,973.30
2018-02-25T07:42:51.612Z,973.15
2018-02-25T07:43:51.597Z,973.14
2018-02-25T07:44:51.647Z,973.00
2018-02-25T07:45:51.610Z,973.06
2018-02-25T07:46:51.590Z,973.05
2018-02-25T07:47:51.573Z,973.03
2018-02-25T07:48:51.593Z,973.04
2018-02-25T07:49:51.588Z,973.14
2018-02-25T07:50:51.572Z,973.26
2018-02-25T07:51:51.567Z,973.39
2018-02-25T07:52:52.287Z,973.39
2018-02-25T07:53:51.557Z,973.36
2018-02-25T07:54:51.574Z,973.41
2018-02-25T07:55:51.551Z,973.21
2018-02-25T07:56:51.563Z,973.39
2018-02-25T07:57:51.542Z,973.31
2018-02-25T07:58:51.619Z,973.41
2018-02-25T07:59:51.529Z,973.38
2018-02-25T08:00:51.530Z,973.39
2018-02-25T08:01:51.519Z,973.45
2018-02-25T08:02:51.525Z,973.40
2018-02-25T08:03:51.522Z,972.77
2018-02-25T08:04:51.511Z,972.71
2018-02-25T08:05:51.507Z,972.83
2018-02-25T08:06:51.508Z,972.72
2018-02-25T08:07:51.499Z,972.71
2018-02-25T08:08:51.494Z,972.68
2018-02-25T08:09:51.484Z,972.75
2018-02-25T08:10:51.480Z,972.73
2018-02-25T08:11:51.474Z,972.76
2018-02-25T08:12:51.472Z,972.66
2018-02-25T08:13:51.465Z,972.82
2018-02-25T08:14:51.454Z,972.80
2018-02-25T08:15:51.445Z,972.79
2018-02-25T08:16:51.440Z,972.75
2018-02-25T08:17:51.432Z,972.66
2018-02-25T08:18:51.425Z,972.82
2018-02-25T08:19:51.419Z,972.66
2018-02-25T08:20:51.405Z,972.82
2018-02-25T08:21:51.409Z,972.69
2018-02-25T08:22:51.393Z,972.56
2018-02-25T08:23:51.380Z,972.62
2018-02-25T08:24:51.374Z,972.58
2018-02-25T08:25:51.363Z,972.63
2018-02-25T08:26:52.274Z,972.58
2018-02-25T08:27:51.352Z,972.64
2018-02-25T08:28:51.336Z,972.81
2018-02-25T08:29:51.327Z,972.84
2018-02-25T08:30:51.320Z,972.66
2018-02-25T08:31:51.305Z,972.69
2018-02-25T08:32:51.296Z,972.64
2018-02-25T08:33:51.290Z,972.63
2018-02-25T08:34:51.275Z,972.82
2018-02-25T08:35:51.267Z,972.81
2018-02-25T08:36:51.254Z,973.54
2018-02-25T08:37:51.279Z,973.48
2018-02-25T08:38:51.236Z,973.00
2018-02-25T08:39:51.236Z,973.46
2018-02-25T08:40:51.221Z,973.13
2018-02-25T08:41:51.280Z,973.45
2018-02-25T08:42:51.287Z,973.50
2018-02-25T08:43:51.194Z,972.85
2018-02-25T08:44:51.184Z,972.78
2018-02-25T08:45:51.306Z,972.78
2018-02-25T08:46:51.174Z,973.21
2018-02-25T08:47:51.199Z,972.94
2018-02-25T08:48:51.195Z,972.72
2018-02-25T08:49:51.151Z,972.68
2018-02-25T08:50:51.141Z,972.67
2018-02-25T08:51:51.135Z,973.00
2018-02-25T08:52:51.126Z,973.03
2018-02-25T08:53:51.121Z,972.72
2018-02-25T08:54:51.109Z,972.64
2018-02-25T08:55:51.110Z,972.63
2018-02-25T08:56:51.090Z,972.61
2018-02-25T08:57:51.085Z,972.61
2018-02-25T08:58:51.088Z,972.86
2018-02-25T08:59:51.068Z,972.88
2018-02-25T09:00:51.053Z,972.77
2018-02-25T09:01:51.045Z,972.68
2018-02-25T09:02:51.035Z,972.63
2018-02-25T09:03:51.028Z,972.53
2018-02-25T09:04:51.016Z,972.56
2018-02-25T09:05:51.010Z,972.54
2018-02-25T09:06:51.024Z,972.56
2018-02-25T09:07:50.991Z,972.57
2018-02-25T09:08:50.982Z,972.58
2018-02-25T09:09:50.980Z,973.15
2018-02-25T09:10:50.966Z,973.31
2018-02-25T09:11:50.953Z,972.77
2018-02-25T09:12:50.940Z,972.76
2018-02-25T09:13:50.933Z,973.38
2018-02-25T09:14:50.940Z,973.39
2018-02-25T09:15:50.934Z,973.59
2018-02-25T09:16:50.932Z,972.86
2018-02-25T09:17:50.902Z,973.45
2018-02-25T09:18:50.889Z,973.53
2018-02-25T09:19:50.885Z,973.53
2018-02-25T09:20:50.875Z,973.51
2018-02-25T09:21:50.905Z,973.58
2018-02-25T09:22:50.871Z,973.56
2018-02-25T09:23:50.860Z,973.59
2018-02-25T09:24:50.855Z,973.66
2018-02-25T09:25:50.855Z,973.61
2018-02-25T09:26:50.851Z,973.62
2018-02-25T09:27:50.848Z,973.60
2018-02-25T09:28:50.850Z,973.64
2018-02-25T09:29:51.030Z,973.70
2018-02-25T09:30:50.847Z,973.68
2018-02-25T09:31:50.893Z,973.66
2018-02-25T09:34:22.433Z,973.30
2018-02-25T09:37:07.245Z,973.64
2018-02-25T09:38:05.310Z,972.88
2018-02-25T09:39:05.313Z,972.90
2018-02-25T09:40:08.072Z,973.52
2018-02-25T09:41:06.106Z,973.15
2018-02-25T09:42:07.057Z,972.94
2018-02-25T09:43:05.243Z,972.85
2018-02-25T09:44:05.224Z,973.46
2018-02-25T09:45:05.226Z,973.20
2018-02-25T09:46:05.381Z,973.47
2018-02-25T09:47:05.228Z,973.49
2018-02-25T09:48:06.034Z,973.45
2018-02-25T09:49:05.232Z,973.45
2018-02-25T09:50:05.234Z,973.17
2018-02-25T09:51:05.248Z,973.48
2018-02-25T09:53:55.237Z,973.45
2018-02-25T09:55:00.738Z,973.44
2018-02-25T09:57:36.944Z,973.42
2018-02-25T09:58:36.934Z,973.44
2018-02-25T10:00:32.266Z,973.37
2018-02-25T10:01:32.389Z,973.42
2018-02-25T10:03:26.597Z,972.78
2018-02-25T10:04:27.270Z,973.04
2018-02-25T10:06:21.052Z,973.33
2018-02-25T10:07:21.025Z,973.42
2018-02-25T10:09:28.115Z,973.43
2018-02-25T10:10:28.109Z,973.41
2018-02-25T10:12:22.590Z,973.35
2018-02-25T10:13:22.504Z,973.35
2018-02-25T10:15:17.920Z,973.37
2018-02-25T10:16:17.924Z,973.36
2018-02-25T10:18:12.416Z,973.34
2018-02-25T10:19:12.434Z,973.29
2018-02-25T10:21:07.872Z,973.31
2018-02-25T10:22:15.435Z,973.32
2018-02-25T10:24:01.192Z,973.28
2018-02-25T10:25:01.150Z,973.26
2018-02-25T10:26:55.522Z,972.87
2018-02-25T10:27:55.526Z,972.72
2018-02-25T10:29:49.949Z,972.76
2018-02-25T10:30:49.974Z,972.68
2018-02-25T10:32:44.467Z,972.64
2018-02-25T10:33:44.455Z,972.63
2018-02-25T10:34:44.449Z,972.59
2018-02-25T10:35:45.959Z,972.54
2018-02-25T10:36:46.987Z,972.55
2018-02-25T10:37:53.958Z,972.50
2018-02-25T10:39:42.386Z,972.50
2018-02-25T10:40:42.204Z,972.35
2018-02-25T10:41:42.194Z,972.36
2018-02-25T10:42:42.200Z,972.33
2018-02-25T10:43:43.783Z,972.33
2018-02-25T10:44:42.210Z,972.31
2018-02-25T10:45:42.209Z,972.34
2018-02-25T10:46:42.198Z,972.29
2018-02-25T10:47:42.204Z,972.28
2018-02-25T10:48:42.197Z,972.29
2018-02-25T10:49:42.203Z,972.31
2018-02-25T10:50:42.192Z,972.23
2018-02-25T10:51:42.200Z,972.19
2018-02-25T10:52:42.205Z,972.19
2018-02-25T10:53:42.188Z,972.19
2018-02-25T10:54:42.187Z,972.13
2018-02-25T10:55:42.186Z,972.13
2018-02-25T10:56:42.173Z,972.10
2018-02-25T10:57:42.425Z,972.09
2018-02-25T10:58:42.267Z,972.09
2018-02-25T10:59:50.889Z,972.03
2018-02-25T11:01:36.739Z,971.98
2018-02-25T11:02:36.591Z,971.96
2018-02-25T11:04:30.885Z,972.02
2018-02-25T11:05:30.923Z,972.01
2018-02-25T11:07:25.266Z,971.92
2018-02-25T11:08:25.309Z,971.97
2018-02-25T11:09:25.278Z,971.95
2018-02-25T11:10:25.256Z,971.90
2018-02-25T11:12:56.617Z,971.88
2018-02-25T11:13:56.521Z,971.89
2018-02-25T11:16:47.423Z,971.85
2018-02-25T11:19:07.384Z,971.90
2018-02-25T11:20:07.325Z,971.83
2018-02-25T11:22:27.944Z,971.80
2018-02-25T11:23:50.136Z,971.76
2018-02-25T11:25:22.395Z,971.74
2018-02-25T11:27:58.035Z,971.70
2018-02-25T11:28:57.982Z,971.67
2018-02-25T11:29:57.992Z,971.67
2018-02-25T11:30:57.965Z,971.71
2018-02-25T11:31:57.933Z,971.69
2018-02-25T11:32:57.924Z,971.66
2018-02-25T11:33:57.917Z,971.64
2018-02-25T11:34:57.909Z,971.69
2018-02-25T11:35:57.903Z,971.67
2018-02-25T11:36:57.894Z,971.64
2018-02-25T11:37:57.893Z,971.62
2018-02-25T11:38:57.881Z,971.56
2018-02-25T11:39:57.875Z,971.57
2018-02-25T11:40:57.869Z,971.57
2018-02-25T11:41:57.862Z,971.54
2018-02-25T11:42:57.855Z,971.52
2018-02-25T11:43:57.879Z,971.53
2018-02-25T11:44:57.844Z,971.51
2018-02-25T11:45:57.830Z,971.53
2018-02-25T11:47:06.508Z,971.46
2018-02-25T11:48:52.228Z,971.58
2018-02-25T11:49:52.317Z,971.53
2018-02-25T11:51:47.172Z,971.48
2018-02-25T11:52:46.686Z,971.48
2018-02-25T11:54:40.898Z,971.45
2018-02-25T11:55:40.876Z,971.49
2018-02-25T11:57:35.232Z,971.51
2018-02-25T11:58:35.217Z,971.45
2018-02-25T12:00:29.625Z,971.41
2018-02-25T12:01:29.581Z,971.46
2018-02-25T12:03:23.975Z,971.47
2018-02-25T12:04:24.519Z,971.46
2018-02-25T12:06:18.274Z,971.48
2018-02-25T12:07:18.245Z,971.52
2018-02-25T12:09:12.629Z,971.54
2018-02-25T12:10:12.602Z,971.51
2018-02-25T12:12:06.975Z,971.44
2018-02-25T12:13:06.928Z,971.43
2018-02-25T12:15:01.298Z,971.37
2018-02-25T12:16:01.274Z,971.39
2018-02-25T12:17:55.645Z,971.39
2018-02-25T12:18:55.629Z,971.40
2018-02-25T12:20:50.130Z,971.32
2018-02-25T12:21:50.079Z,971.36
2018-02-25T12:23:44.438Z,971.37
2018-02-25T12:24:44.387Z,971.36
2018-02-25T12:26:38.747Z,971.37
2018-02-25T12:27:38.738Z,971.33
2018-02-25T12:29:33.142Z,971.33
2018-02-25T12:30:33.093Z,971.27
2018-02-25T12:32:27.453Z,971.26
2018-02-25T12:33:27.440Z,971.21
2018-02-25T12:35:21.833Z,971.22
2018-02-25T12:36:21.790Z,971.20
2018-02-25T12:38:16.120Z,971.21
2018-02-25T12:39:16.136Z,971.18
2018-02-25T12:41:10.500Z,971.14
2018-02-25T12:42:10.551Z,971.10
2018-02-25T12:44:04.882Z,971.09
2018-02-25T12:45:04.866Z,971.12
2018-02-25T12:46:59.232Z,971.13
2018-02-25T12:47:59.182Z,971.08
2018-02-25T12:49:53.545Z,970.99
2018-02-25T12:50:53.512Z,970.99
2018-02-25T12:52:48.196Z,970.97
2018-02-25T12:53:48.190Z,970.92
2018-02-25T12:55:42.797Z,970.93
2018-02-25T12:56:42.591Z,970.89
2018-02-25T12:58:37.782Z,970.93
2018-02-25T12:59:37.746Z,970.94
2018-02-25T13:01:33.864Z,970.92
2018-02-25T13:02:32.060Z,970.87
2018-02-25T13:04:26.599Z,970.85
2018-02-25T13:05:35.097Z,970.85
2018-02-25T13:08:03.468Z,970.78
2018-02-25T13:09:03.427Z,970.83
2018-02-25T13:10:03.453Z,970.74
2018-02-25T13:11:03.348Z,970.77
2018-02-25T13:12:04.982Z,970.74
2018-02-25T13:13:04.912Z,970.78
2018-02-25T13:14:03.303Z,970.83
2018-02-25T13:15:03.313Z,970.78
2018-02-25T13:16:03.290Z,970.76
2018-02-25T13:17:03.281Z,970.71
2018-02-25T13:18:03.300Z,970.66
2018-02-25T13:19:05.033Z,970.64
2018-02-25T13:20:03.300Z,970.64
2018-02-25T13:21:03.250Z,970.68
2018-02-25T13:22:03.311Z,970.65
2018-02-25T13:23:03.277Z,970.59
2018-02-25T13:24:03.261Z,970.64
2018-02-25T13:25:03.295Z,970.65
2018-02-25T13:26:03.226Z,970.64
2018-02-25T13:27:03.198Z,970.65